sensor_id;sensor_type;location;lat;lon;timestamp;P1;durP1;ratioP1;P2;durP2;ratioP2
12194;SDS011;27023;42.680;23.132;2022-12-18T00:02:17;12.17;;;11.77;;
12194;SDS011;27023;42.680;23.132;2022-12-18T00:04:44;16.33;;;15.63;;
12194;SDS011;27023;42.680;23.132;2022-12-18T00:07:11;14.10;;;13.60;;
12194;SDS011;27023;42.680;23.132;2022-12-18T00:09:38;16.40;;;15.70;;
12194;SDS011;27023;42.680;23.132;2022-12-18T00:12:05;14.70;;;14.10;;
12194;SDS011;27023;42.680;23.132;2022-12-18T00:14:32;16.03;;;15.33;;
12194;SDS011;27023;42.680;23.132;2022-12-18T00:17:00;13.50;;;13.00;;
12194;SDS011;27023;42.680;23.132;2022-12-18T00:19:26;15.17;;;14.47;;
12194;SDS011;27023;42.680;23.132;2022-12-18T00:21:53;18.77;;;17.93;;
12194;SDS011;27023;42.680;23.132;2022-12-18T00:24:20;22.33;;;21.30;;
12194;SDS011;27023;42.680;23.132;2022-12-18T00:26:47;15.47;;;14.87;;
12194;SDS011;27023;42.680;23.132;2022-12-18T00:29:14;13.90;;;13.33;;
12194;SDS011;27023;42.680;23.132;2022-12-18T00:31:41;12.77;;;12.20;;
12194;SDS011;27023;42.680;23.132;2022-12-18T00:34:10;15.80;;;15.13;;
12194;SDS011;27023;42.680;23.132;2022-12-18T00:36:38;17.23;;;16.47;;
12194;SDS011;27023;42.680;23.132;2022-12-18T00:39:06;12.60;;;12.10;;
12194;SDS011;27023;42.680;23.132;2022-12-18T00:41:33;14.30;;;13.70;;
12194;SDS011;27023;42.680;23.132;2022-12-18T00:44:17;20.80;;;19.90;;
12194;SDS011;27023;42.680;23.132;2022-12-18T00:46:45;14.83;;;14.23;;
12194;SDS011;27023;42.680;23.132;2022-12-18T00:49:14;14.17;;;13.60;;
12194;SDS011;27023;42.680;23.132;2022-12-18T00:51:41;12.03;;;11.63;;
12194;SDS011;27023;42.680;23.132;2022-12-18T00:54:08;13.20;;;12.70;;
12194;SDS011;27023;42.680;23.132;2022-12-18T00:56:36;12.40;;;12.00;;
12194;SDS011;27023;42.680;23.132;2022-12-18T00:59:04;11.43;;;11.03;;
12194;SDS011;27023;42.680;23.132;2022-12-18T01:01:31;14.20;;;13.57;;
12194;SDS011;27023;42.680;23.132;2022-12-18T01:03:59;15.93;;;15.33;;
12194;SDS011;27023;42.680;23.132;2022-12-18T01:06:27;17.90;;;17.10;;
12194;SDS011;27023;42.680;23.132;2022-12-18T01:08:54;17.40;;;16.70;;
12194;SDS011;27023;42.680;23.132;2022-12-18T01:11:21;16.00;;;15.33;;
12194;SDS011;27023;42.680;23.132;2022-12-18T01:13:48;13.77;;;13.23;;
12194;SDS011;27023;42.680;23.132;2022-12-18T01:16:16;14.63;;;14.10;;
12194;SDS011;27023;42.680;23.132;2022-12-18T01:18:43;14.40;;;13.80;;
12194;SDS011;27023;42.680;23.132;2022-12-18T01:21:11;15.30;;;14.70;;
12194;SDS011;27023;42.680;23.132;2022-12-18T01:23:40;16.63;;;16.03;;
12194;SDS011;27023;42.680;23.132;2022-12-18T01:26:07;17.40;;;16.70;;
12194;SDS011;27023;42.680;23.132;2022-12-18T01:28:36;16.63;;;15.93;;
12194;SDS011;27023;42.680;23.132;2022-12-18T01:31:10;20.63;;;19.70;;
12194;SDS011;27023;42.680;23.132;2022-12-18T01:33:38;18.83;;;18.10;;
12194;SDS011;27023;42.680;23.132;2022-12-18T01:36:05;22.73;;;21.83;;
12194;SDS011;27023;42.680;23.132;2022-12-18T01:38:32;21.07;;;20.23;;
12194;SDS011;27023;42.680;23.132;2022-12-18T01:41:00;18.60;;;17.90;;
12194;SDS011;27023;42.680;23.132;2022-12-18T01:46:15;14.17;;;13.60;;
12194;SDS011;27023;42.680;23.132;2022-12-18T01:48:43;14.20;;;13.73;;
12194;SDS011;27023;42.680;23.132;2022-12-18T01:51:11;21.40;;;20.50;;
12194;SDS011;27023;42.680;23.132;2022-12-18T01:53:39;19.40;;;18.70;;
12194;SDS011;27023;42.680;23.132;2022-12-18T01:56:10;13.03;;;12.63;;
12194;SDS011;27023;42.680;23.132;2022-12-18T01:58:41;17.57;;;16.87;;
12194;SDS011;27023;42.680;23.132;2022-12-18T02:01:12;25.30;;;24.10;;
12194;SDS011;27023;42.680;23.132;2022-12-18T02:03:40;15.20;;;14.60;;
12194;SDS011;27023;42.680;23.132;2022-12-18T02:06:10;12.13;;;11.73;;
12194;SDS011;27023;42.680;23.132;2022-12-18T02:08:43;27.37;;;26.03;;
12194;SDS011;27023;42.680;23.132;2022-12-18T02:11:21;18.63;;;17.87;;
12194;SDS011;27023;42.680;23.132;2022-12-18T02:14:00;13.83;;;13.33;;
12194;SDS011;27023;42.680;23.132;2022-12-18T02:16:35;21.93;;;21.03;;
12194;SDS011;27023;42.680;23.132;2022-12-18T02:19:08;25.23;;;23.93;;
12194;SDS011;27023;42.680;23.132;2022-12-18T02:21:48;15.97;;;15.37;;
12194;SDS011;27023;42.680;23.132;2022-12-18T02:24:25;15.60;;;14.93;;
12194;SDS011;27023;42.680;23.132;2022-12-18T02:27:02;14.93;;;14.33;;
12194;SDS011;27023;42.680;23.132;2022-12-18T02:29:33;15.17;;;14.57;;
12194;SDS011;27023;42.680;23.132;2022-12-18T02:32:04;13.73;;;13.23;;
12194;SDS011;27023;42.680;23.132;2022-12-18T02:34:37;15.77;;;15.07;;
12194;SDS011;27023;42.680;23.132;2022-12-18T02:37:06;15.47;;;14.87;;
12194;SDS011;27023;42.680;23.132;2022-12-18T02:39:37;13.83;;;13.33;;
12194;SDS011;27023;42.680;23.132;2022-12-18T02:42:08;12.97;;;12.43;;
12194;SDS011;27023;42.680;23.132;2022-12-18T02:44:35;12.50;;;12.00;;
12194;SDS011;27023;42.680;23.132;2022-12-18T02:47:09;22.50;;;21.57;;
12194;SDS011;27023;42.680;23.132;2022-12-18T02:49:40;17.30;;;16.60;;
12194;SDS011;27023;42.680;23.132;2022-12-18T02:52:16;14.90;;;14.27;;
12194;SDS011;27023;42.680;23.132;2022-12-18T02:54:55;15.37;;;14.80;;
12194;SDS011;27023;42.680;23.132;2022-12-18T02:57:30;13.30;;;12.70;;
12194;SDS011;27023;42.680;23.132;2022-12-18T03:00:03;15.77;;;15.00;;
12194;SDS011;27023;42.680;23.132;2022-12-18T03:02:34;13.97;;;13.33;;
12194;SDS011;27023;42.680;23.132;2022-12-18T03:05:07;13.77;;;13.30;;
12194;SDS011;27023;42.680;23.132;2022-12-18T03:07:40;23.40;;;22.30;;
12194;SDS011;27023;42.680;23.132;2022-12-18T03:10:13;16.33;;;15.70;;
12194;SDS011;27023;42.680;23.132;2022-12-18T03:12:44;18.23;;;17.43;;
12194;SDS011;27023;42.680;23.132;2022-12-18T03:15:18;23.40;;;22.27;;
12194;SDS011;27023;42.680;23.132;2022-12-18T03:17:50;20.20;;;19.30;;
12194;SDS011;27023;42.680;23.132;2022-12-18T03:20:21;19.20;;;18.27;;
12194;SDS011;27023;42.680;23.132;2022-12-18T03:22:51;17.40;;;16.60;;
12194;SDS011;27023;42.680;23.132;2022-12-18T03:25:22;22.23;;;21.10;;
12194;SDS011;27023;42.680;23.132;2022-12-18T03:27:53;17.20;;;16.40;;
12194;SDS011;27023;42.680;23.132;2022-12-18T03:30:24;15.83;;;15.10;;
12194;SDS011;27023;42.680;23.132;2022-12-18T03:32:56;29.10;;;27.40;;
12194;SDS011;27023;42.680;23.132;2022-12-18T03:35:29;22.67;;;21.53;;
12194;SDS011;27023;42.680;23.132;2022-12-18T03:37:59;23.93;;;22.50;;
12194;SDS011;27023;42.680;23.132;2022-12-18T03:40:26;20.80;;;19.77;;
12194;SDS011;27023;42.680;23.132;2022-12-18T03:43:02;24.47;;;23.30;;
12194;SDS011;27023;42.680;23.132;2022-12-18T03:45:35;30.23;;;28.67;;
12194;SDS011;27023;42.680;23.132;2022-12-18T03:48:08;29.43;;;28.00;;
12194;SDS011;27023;42.680;23.132;2022-12-18T03:50:44;30.97;;;29.53;;
12194;SDS011;27023;42.680;23.132;2022-12-18T03:53:18;36.07;;;34.30;;
12194;SDS011;27023;42.680;23.132;2022-12-18T03:55:52;28.43;;;27.10;;
12194;SDS011;27023;42.680;23.132;2022-12-18T03:58:21;38.13;;;36.17;;
12194;SDS011;27023;42.680;23.132;2022-12-18T04:00:51;28.60;;;27.20;;
12194;SDS011;27023;42.680;23.132;2022-12-18T04:03:21;28.30;;;26.93;;
12194;SDS011;27023;42.680;23.132;2022-12-18T04:05:50;34.60;;;33.00;;
12194;SDS011;27023;42.680;23.132;2022-12-18T04:08:20;28.30;;;27.03;;
12194;SDS011;27023;42.680;23.132;2022-12-18T04:10:48;30.73;;;29.37;;
12194;SDS011;27023;42.680;23.132;2022-12-18T04:13:22;31.70;;;30.30;;
12194;SDS011;27023;42.680;23.132;2022-12-18T04:15:50;37.17;;;35.20;;
12194;SDS011;27023;42.680;23.132;2022-12-18T04:18:18;35.20;;;33.30;;
12194;SDS011;27023;42.680;23.132;2022-12-18T04:20:45;47.77;;;45.27;;
12194;SDS011;27023;42.680;23.132;2022-12-18T04:23:12;36.33;;;34.50;;
12194;SDS011;27023;42.680;23.132;2022-12-18T04:25:38;44.40;;;42.07;;
12194;SDS011;27023;42.680;23.132;2022-12-18T04:28:05;32.30;;;30.77;;
12194;SDS011;27023;42.680;23.132;2022-12-18T04:30:33;39.73;;;37.77;;
12194;SDS011;27023;42.680;23.132;2022-12-18T04:33:00;43.30;;;41.10;;
12194;SDS011;27023;42.680;23.132;2022-12-18T04:35:26;42.30;;;40.17;;
12194;SDS011;27023;42.680;23.132;2022-12-18T04:37:53;31.57;;;30.13;;
12194;SDS011;27023;42.680;23.132;2022-12-18T04:40:20;39.00;;;37.13;;
12194;SDS011;27023;42.680;23.132;2022-12-18T04:42:46;37.00;;;35.27;;
12194;SDS011;27023;42.680;23.132;2022-12-18T04:45:13;44.87;;;42.73;;
12194;SDS011;27023;42.680;23.132;2022-12-18T04:47:41;38.07;;;36.17;;
12194;SDS011;27023;42.680;23.132;2022-12-18T04:50:08;40.53;;;38.60;;
12194;SDS011;27023;42.680;23.132;2022-12-18T04:52:35;42.60;;;40.43;;
12194;SDS011;27023;42.680;23.132;2022-12-18T04:55:02;36.57;;;34.73;;
12194;SDS011;27023;42.680;23.132;2022-12-18T04:57:29;32.90;;;31.27;;
12194;SDS011;27023;42.680;23.132;2022-12-18T04:59:56;25.87;;;24.73;;
12194;SDS011;27023;42.680;23.132;2022-12-18T05:02:22;28.20;;;26.83;;
12194;SDS011;27023;42.680;23.132;2022-12-18T05:04:50;29.57;;;28.07;;
12194;SDS011;27023;42.680;23.132;2022-12-18T05:07:17;24.83;;;23.63;;
12194;SDS011;27023;42.680;23.132;2022-12-18T05:09:44;29.07;;;27.67;;
12194;SDS011;27023;42.680;23.132;2022-12-18T05:12:10;26.67;;;25.40;;
12194;SDS011;27023;42.680;23.132;2022-12-18T05:14:37;31.13;;;29.57;;
12194;SDS011;27023;42.680;23.132;2022-12-18T05:17:04;30.40;;;28.83;;
12194;SDS011;27023;42.680;23.132;2022-12-18T05:19:31;28.97;;;27.50;;
12194;SDS011;27023;42.680;23.132;2022-12-18T05:21:59;29.97;;;28.47;;
12194;SDS011;27023;42.680;23.132;2022-12-18T05:24:26;34.33;;;32.57;;
12194;SDS011;27023;42.680;23.132;2022-12-18T05:26:53;33.23;;;31.53;;
12194;SDS011;27023;42.680;23.132;2022-12-18T05:29:19;47.10;;;44.57;;
12194;SDS011;27023;42.680;23.132;2022-12-18T05:31:46;32.93;;;31.23;;
12194;SDS011;27023;42.680;23.132;2022-12-18T05:34:13;29.00;;;27.50;;
12194;SDS011;27023;42.680;23.132;2022-12-18T05:36:40;46.33;;;43.83;;
12194;SDS011;27023;42.680;23.132;2022-12-18T05:39:08;40.10;;;37.97;;
12194;SDS011;27023;42.680;23.132;2022-12-18T05:41:35;29.20;;;27.67;;
12194;SDS011;27023;42.680;23.132;2022-12-18T05:44:01;30.43;;;28.93;;
12194;SDS011;27023;42.680;23.132;2022-12-18T05:46:28;28.00;;;26.63;;
12194;SDS011;27023;42.680;23.132;2022-12-18T05:48:58;30.27;;;28.83;;
12194;SDS011;27023;42.680;23.132;2022-12-18T05:51:25;37.30;;;35.37;;
12194;SDS011;27023;42.680;23.132;2022-12-18T05:53:52;30.33;;;28.83;;
12194;SDS011;27023;42.680;23.132;2022-12-18T05:56:20;28.53;;;27.23;;
12194;SDS011;27023;42.680;23.132;2022-12-18T05:58:50;34.63;;;32.97;;
12194;SDS011;27023;42.680;23.132;2022-12-18T06:01:19;31.73;;;30.13;;
12194;SDS011;27023;42.680;23.132;2022-12-18T06:03:47;31.60;;;30.07;;
12194;SDS011;27023;42.680;23.132;2022-12-18T06:06:15;32.57;;;30.73;;
12194;SDS011;27023;42.680;23.132;2022-12-18T06:08:42;32.57;;;30.73;;
12194;SDS011;27023;42.680;23.132;2022-12-18T06:11:09;39.57;;;37.43;;
12194;SDS011;27023;42.680;23.132;2022-12-18T06:13:37;44.00;;;41.53;;
12194;SDS011;27023;42.680;23.132;2022-12-18T06:16:04;30.83;;;29.30;;
12194;SDS011;27023;42.680;23.132;2022-12-18T06:18:32;33.23;;;31.47;;
12194;SDS011;27023;42.680;23.132;2022-12-18T06:20:59;33.60;;;31.60;;
12194;SDS011;27023;42.680;23.132;2022-12-18T06:23:26;41.13;;;38.57;;
12194;SDS011;27023;42.680;23.132;2022-12-18T06:25:53;40.30;;;38.10;;
12194;SDS011;27023;42.680;23.132;2022-12-18T06:28:20;43.27;;;40.97;;
12194;SDS011;27023;42.680;23.132;2022-12-18T06:30:48;39.00;;;37.03;;
12194;SDS011;27023;42.680;23.132;2022-12-18T06:33:16;33.23;;;31.37;;
12194;SDS011;27023;42.680;23.132;2022-12-18T06:35:43;35.73;;;33.87;;
12194;SDS011;27023;42.680;23.132;2022-12-18T06:38:09;34.17;;;32.43;;
12194;SDS011;27023;42.680;23.132;2022-12-18T06:40:36;32.43;;;30.80;;
12194;SDS011;27023;42.680;23.132;2022-12-18T06:43:04;41.33;;;39.17;;
12194;SDS011;27023;42.680;23.132;2022-12-18T06:45:31;34.60;;;32.90;;
12194;SDS011;27023;42.680;23.132;2022-12-18T06:47:59;31.20;;;29.73;;
12194;SDS011;27023;42.680;23.132;2022-12-18T06:50:25;34.73;;;33.00;;
12194;SDS011;27023;42.680;23.132;2022-12-18T06:52:52;31.43;;;29.83;;
12194;SDS011;27023;42.680;23.132;2022-12-18T06:55:19;31.93;;;30.30;;
12194;SDS011;27023;42.680;23.132;2022-12-18T06:57:46;30.40;;;28.70;;
12194;SDS011;27023;42.680;23.132;2022-12-18T07:00:13;27.27;;;25.73;;
12194;SDS011;27023;42.680;23.132;2022-12-18T07:02:40;28.37;;;26.73;;
12194;SDS011;27023;42.680;23.132;2022-12-18T07:05:08;26.80;;;25.33;;
12194;SDS011;27023;42.680;23.132;2022-12-18T07:07:35;25.77;;;24.20;;
12194;SDS011;27023;42.680;23.132;2022-12-18T07:10:02;24.70;;;23.43;;
12194;SDS011;27023;42.680;23.132;2022-12-18T07:12:29;23.47;;;22.23;;
12194;SDS011;27023;42.680;23.132;2022-12-18T07:14:55;18.47;;;17.50;;
12194;SDS011;27023;42.680;23.132;2022-12-18T07:17:22;16.90;;;16.10;;
12194;SDS011;27023;42.680;23.132;2022-12-18T07:19:49;21.07;;;20.00;;
12194;SDS011;27023;42.680;23.132;2022-12-18T07:22:17;21.13;;;20.07;;
12194;SDS011;27023;42.680;23.132;2022-12-18T07:24:43;22.93;;;21.70;;
12194;SDS011;27023;42.680;23.132;2022-12-18T07:27:10;23.83;;;22.67;;
12194;SDS011;27023;42.680;23.132;2022-12-18T07:29:37;23.47;;;22.07;;
12194;SDS011;27023;42.680;23.132;2022-12-18T07:32:04;22.07;;;21.00;;
12194;SDS011;27023;42.680;23.132;2022-12-18T07:34:32;21.03;;;19.83;;
12194;SDS011;27023;42.680;23.132;2022-12-18T07:36:58;24.37;;;23.07;;
12194;SDS011;27023;42.680;23.132;2022-12-18T07:39:26;23.57;;;22.10;;
12194;SDS011;27023;42.680;23.132;2022-12-18T07:41:53;23.77;;;22.63;;
12194;SDS011;27023;42.680;23.132;2022-12-18T07:44:34;20.07;;;19.07;;
12194;SDS011;27023;42.680;23.132;2022-12-18T07:47:00;22.47;;;21.30;;
12194;SDS011;27023;42.680;23.132;2022-12-18T07:49:27;27.63;;;26.00;;
12194;SDS011;27023;42.680;23.132;2022-12-18T07:51:54;27.10;;;25.70;;
12194;SDS011;27023;42.680;23.132;2022-12-18T07:54:22;22.93;;;21.73;;
12194;SDS011;27023;42.680;23.132;2022-12-18T07:56:50;24.03;;;22.73;;
12194;SDS011;27023;42.680;23.132;2022-12-18T07:59:17;17.13;;;16.13;;
12194;SDS011;27023;42.680;23.132;2022-12-18T08:01:44;24.70;;;23.30;;
12194;SDS011;27023;42.680;23.132;2022-12-18T08:04:11;24.47;;;23.23;;
12194;SDS011;27023;42.680;23.132;2022-12-18T08:06:38;30.80;;;28.87;;
12194;SDS011;27023;42.680;23.132;2022-12-18T08:09:04;26.83;;;25.20;;
12194;SDS011;27023;42.680;23.132;2022-12-18T08:11:33;20.87;;;19.57;;
12194;SDS011;27023;42.680;23.132;2022-12-18T08:14:01;21.20;;;20.10;;
12194;SDS011;27023;42.680;23.132;2022-12-18T08:16:27;32.40;;;30.53;;
12194;SDS011;27023;42.680;23.132;2022-12-18T08:18:55;22.07;;;20.80;;
12194;SDS011;27023;42.680;23.132;2022-12-18T08:21:23;20.40;;;19.13;;
12194;SDS011;27023;42.680;23.132;2022-12-18T08:23:51;24.53;;;23.20;;
12194;SDS011;27023;42.680;23.132;2022-12-18T08:26:19;26.97;;;25.40;;
12194;SDS011;27023;42.680;23.132;2022-12-18T08:28:46;18.83;;;18.03;;
12194;SDS011;27023;42.680;23.132;2022-12-18T08:31:15;20.07;;;19.07;;
12194;SDS011;27023;42.680;23.132;2022-12-18T08:33:41;24.70;;;23.37;;
12194;SDS011;27023;42.680;23.132;2022-12-18T08:36:08;17.43;;;16.60;;
12194;SDS011;27023;42.680;23.132;2022-12-18T08:38:36;18.53;;;17.53;;
12194;SDS011;27023;42.680;23.132;2022-12-18T08:41:03;18.53;;;17.67;;
12194;SDS011;27023;42.680;23.132;2022-12-18T08:43:32;15.73;;;14.97;;
12194;SDS011;27023;42.680;23.132;2022-12-18T08:46:19;15.87;;;15.17;;
12194;SDS011;27023;42.680;23.132;2022-12-18T08:48:50;17.40;;;16.63;;
12194;SDS011;27023;42.680;23.132;2022-12-18T08:51:18;19.10;;;18.13;;
12194;SDS011;27023;42.680;23.132;2022-12-18T08:53:45;22.90;;;21.80;;
12194;SDS011;27023;42.680;23.132;2022-12-18T08:56:13;23.83;;;22.63;;
12194;SDS011;27023;42.680;23.132;2022-12-18T08:58:40;22.80;;;21.60;;
12194;SDS011;27023;42.680;23.132;2022-12-18T09:01:08;24.70;;;23.47;;
12194;SDS011;27023;42.680;23.132;2022-12-18T09:03:38;21.47;;;20.37;;
12194;SDS011;27023;42.680;23.132;2022-12-18T09:06:05;20.13;;;19.17;;
12194;SDS011;27023;42.680;23.132;2022-12-18T09:08:32;23.13;;;21.97;;
12194;SDS011;27023;42.680;23.132;2022-12-18T09:10:59;19.50;;;18.43;;
12194;SDS011;27023;42.680;23.132;2022-12-18T09:13:25;22.00;;;20.90;;
12194;SDS011;27023;42.680;23.132;2022-12-18T09:15:53;24.53;;;23.30;;
12194;SDS011;27023;42.680;23.132;2022-12-18T09:18:22;25.70;;;24.23;;
12194;SDS011;27023;42.680;23.132;2022-12-18T09:20:51;22.73;;;21.63;;
12194;SDS011;27023;42.680;23.132;2022-12-18T09:23:18;25.60;;;24.30;;
12194;SDS011;27023;42.680;23.132;2022-12-18T09:25:44;22.33;;;21.23;;
12194;SDS011;27023;42.680;23.132;2022-12-18T09:28:12;22.70;;;21.57;;
12194;SDS011;27023;42.680;23.132;2022-12-18T09:30:40;20.63;;;19.63;;
12194;SDS011;27023;42.680;23.132;2022-12-18T09:33:09;17.73;;;16.83;;
12194;SDS011;27023;42.680;23.132;2022-12-18T09:35:36;19.00;;;18.03;;
12194;SDS011;27023;42.680;23.132;2022-12-18T09:38:05;19.30;;;18.40;;
12194;SDS011;27023;42.680;23.132;2022-12-18T09:40:33;17.70;;;16.80;;
12194;SDS011;27023;42.680;23.132;2022-12-18T09:43:03;17.27;;;16.53;;
12194;SDS011;27023;42.680;23.132;2022-12-18T09:45:34;43.17;;;40.83;;
12194;SDS011;27023;42.680;23.132;2022-12-18T09:48:10;45.30;;;43.07;;
12194;SDS011;27023;42.680;23.132;2022-12-18T09:51:15;25.53;;;24.20;;
12194;SDS011;27023;42.680;23.132;2022-12-18T09:54:20;26.50;;;25.13;;
12194;SDS011;27023;42.680;23.132;2022-12-18T10:00:38;40.47;;;38.27;;
12194;SDS011;27023;42.680;23.132;2022-12-18T10:03:23;59.70;;;56.50;;
12194;SDS011;27023;42.680;23.132;2022-12-18T10:06:06;45.83;;;43.40;;
12194;SDS011;27023;42.680;23.132;2022-12-18T10:09:07;71.87;;;68.07;;
12194;SDS011;27023;42.680;23.132;2022-12-18T10:12:19;45.77;;;43.33;;
12194;SDS011;27023;42.680;23.132;2022-12-18T10:15:19;46.30;;;43.60;;
12194;SDS011;27023;42.680;23.132;2022-12-18T10:17:58;39.37;;;37.43;;
12194;SDS011;27023;42.680;23.132;2022-12-18T10:20:38;20.60;;;19.53;;
12194;SDS011;27023;42.680;23.132;2022-12-18T10:23:12;21.07;;;20.10;;
12194;SDS011;27023;42.680;23.132;2022-12-18T10:25:47;20.63;;;19.73;;
12194;SDS011;27023;42.680;23.132;2022-12-18T10:28:21;19.20;;;18.33;;
12194;SDS011;27023;42.680;23.132;2022-12-18T10:30:49;22.23;;;21.20;;
12194;SDS011;27023;42.680;23.132;2022-12-18T10:33:17;19.97;;;19.07;;
12194;SDS011;27023;42.680;23.132;2022-12-18T10:35:45;22.70;;;21.50;;
12194;SDS011;27023;42.680;23.132;2022-12-18T10:38:21;22.03;;;20.90;;
12194;SDS011;27023;42.680;23.132;2022-12-18T10:40:51;24.67;;;23.50;;
12194;SDS011;27023;42.680;23.132;2022-12-18T10:43:22;38.87;;;36.87;;
12194;SDS011;27023;42.680;23.132;2022-12-18T10:46:01;56.83;;;53.93;;
12194;SDS011;27023;42.680;23.132;2022-12-18T10:48:31;57.37;;;54.23;;
12194;SDS011;27023;42.680;23.132;2022-12-18T10:51:00;52.00;;;49.37;;
12194;SDS011;27023;42.680;23.132;2022-12-18T10:53:28;53.30;;;50.57;;
12194;SDS011;27023;42.680;23.132;2022-12-18T10:55:57;41.30;;;39.23;;
12194;SDS011;27023;42.680;23.132;2022-12-18T10:58:27;36.77;;;34.97;;
12194;SDS011;27023;42.680;23.132;2022-12-18T11:01:07;33.17;;;31.53;;
12194;SDS011;27023;42.680;23.132;2022-12-18T11:03:36;30.90;;;29.33;;
12194;SDS011;27023;42.680;23.132;2022-12-18T11:06:06;34.40;;;32.80;;
12194;SDS011;27023;42.680;23.132;2022-12-18T11:08:34;31.00;;;29.53;;
12194;SDS011;27023;42.680;23.132;2022-12-18T11:11:01;30.70;;;29.23;;
12194;SDS011;27023;42.680;23.132;2022-12-18T11:13:30;27.90;;;26.53;;
12194;SDS011;27023;42.680;23.132;2022-12-18T11:15:57;25.50;;;24.33;;
12194;SDS011;27023;42.680;23.132;2022-12-18T11:18:26;27.50;;;26.13;;
12194;SDS011;27023;42.680;23.132;2022-12-18T11:20:56;24.50;;;23.30;;
12194;SDS011;27023;42.680;23.132;2022-12-18T11:23:25;26.10;;;24.73;;
12194;SDS011;27023;42.680;23.132;2022-12-18T11:25:53;24.10;;;22.90;;
12194;SDS011;27023;42.680;23.132;2022-12-18T11:28:26;24.87;;;23.70;;
12194;SDS011;27023;42.680;23.132;2022-12-18T11:31:17;25.27;;;24.03;;
12194;SDS011;27023;42.680;23.132;2022-12-18T11:33:50;23.73;;;22.47;;
12194;SDS011;27023;42.680;23.132;2022-12-18T11:36:24;24.80;;;23.43;;
12194;SDS011;27023;42.680;23.132;2022-12-18T11:38:54;21.27;;;20.30;;
12194;SDS011;27023;42.680;23.132;2022-12-18T11:41:26;19.67;;;18.80;;
12194;SDS011;27023;42.680;23.132;2022-12-18T11:44:13;24.27;;;23.13;;
12194;SDS011;27023;42.680;23.132;2022-12-18T11:46:45;30.87;;;29.50;;
12194;SDS011;27023;42.680;23.132;2022-12-18T11:49:19;25.90;;;24.57;;
12194;SDS011;27023;42.680;23.132;2022-12-18T11:51:51;23.77;;;22.73;;
12194;SDS011;27023;42.680;23.132;2022-12-18T11:54:24;26.13;;;24.63;;
12194;SDS011;27023;42.680;23.132;2022-12-18T11:56:53;25.53;;;24.40;;
12194;SDS011;27023;42.680;23.132;2022-12-18T11:59:28;30.13;;;28.77;;
12194;SDS011;27023;42.680;23.132;2022-12-18T12:02:04;28.70;;;27.17;;
12194;SDS011;27023;42.680;23.132;2022-12-18T12:04:51;22.00;;;21.10;;
12194;SDS011;27023;42.680;23.132;2022-12-18T12:07:32;28.63;;;27.27;;
12194;SDS011;27023;42.680;23.132;2022-12-18T12:10:15;33.93;;;32.20;;
12194;SDS011;27023;42.680;23.132;2022-12-18T12:12:58;35.93;;;34.17;;
12194;SDS011;27023;42.680;23.132;2022-12-18T12:15:41;32.80;;;30.93;;
12194;SDS011;27023;42.680;23.132;2022-12-18T12:18:21;35.47;;;33.67;;
12194;SDS011;27023;42.680;23.132;2022-12-18T12:20:57;35.90;;;34.20;;
12194;SDS011;27023;42.680;23.132;2022-12-18T12:23:30;36.33;;;34.53;;
12194;SDS011;27023;42.680;23.132;2022-12-18T12:26:06;31.60;;;30.00;;
12194;SDS011;27023;42.680;23.132;2022-12-18T12:28:39;33.33;;;31.67;;
12194;SDS011;27023;42.680;23.132;2022-12-18T12:41:31;27.53;;;26.20;;
12194;SDS011;27023;42.680;23.132;2022-12-18T12:44:31;27.13;;;25.20;;
12194;SDS011;27023;42.680;23.132;2022-12-18T12:47:04;24.43;;;22.97;;
12194;SDS011;27023;42.680;23.132;2022-12-18T12:49:39;19.17;;;18.13;;
12194;SDS011;27023;42.680;23.132;2022-12-18T12:52:13;20.83;;;19.60;;
12194;SDS011;27023;42.680;23.132;2022-12-18T12:54:45;18.37;;;17.60;;
12194;SDS011;27023;42.680;23.132;2022-12-18T12:57:15;15.10;;;14.43;;
12194;SDS011;27023;42.680;23.132;2022-12-18T12:59:47;20.20;;;19.10;;
12194;SDS011;27023;42.680;23.132;2022-12-18T13:02:20;20.13;;;19.20;;
12194;SDS011;27023;42.680;23.132;2022-12-18T13:04:56;15.00;;;14.30;;
12194;SDS011;27023;42.680;23.132;2022-12-18T13:07:29;13.43;;;12.83;;
12194;SDS011;27023;42.680;23.132;2022-12-18T13:10:24;15.53;;;14.63;;
12194;SDS011;27023;42.680;23.132;2022-12-18T13:12:53;18.63;;;17.73;;
12194;SDS011;27023;42.680;23.132;2022-12-18T13:15:21;20.07;;;18.97;;
12194;SDS011;27023;42.680;23.132;2022-12-18T13:18:02;18.80;;;18.00;;
12194;SDS011;27023;42.680;23.132;2022-12-18T13:20:40;21.50;;;20.37;;
12194;SDS011;27023;42.680;23.132;2022-12-18T13:28:58;16.27;;;15.43;;
12194;SDS011;27023;42.680;23.132;2022-12-18T13:34:33;19.70;;;17.93;;
12194;SDS011;27023;42.680;23.132;2022-12-18T13:40:15;16.83;;;16.13;;
12194;SDS011;27023;42.680;23.132;2022-12-18T13:43:31;20.83;;;19.43;;
12194;SDS011;27023;42.680;23.132;2022-12-18T13:46:04;15.83;;;15.03;;
12194;SDS011;27023;42.680;23.132;2022-12-18T13:48:34;13.13;;;12.73;;
12194;SDS011;27023;42.680;23.132;2022-12-18T13:51:05;14.83;;;14.13;;
12194;SDS011;27023;42.680;23.132;2022-12-18T13:53:35;16.13;;;15.33;;
12194;SDS011;27023;42.680;23.132;2022-12-18T13:56:05;16.10;;;15.33;;
12194;SDS011;27023;42.680;23.132;2022-12-18T13:58:33;16.13;;;15.33;;
12194;SDS011;27023;42.680;23.132;2022-12-18T14:01:00;16.00;;;15.20;;
12194;SDS011;27023;42.680;23.132;2022-12-18T14:03:29;14.40;;;13.67;;
12194;SDS011;27023;42.680;23.132;2022-12-18T14:06:00;16.63;;;15.70;;
12194;SDS011;27023;42.680;23.132;2022-12-18T14:08:34;14.70;;;14.00;;
12194;SDS011;27023;42.680;23.132;2022-12-18T14:11:05;17.90;;;17.00;;
12194;SDS011;27023;42.680;23.132;2022-12-18T14:13:35;18.40;;;17.43;;
12194;SDS011;27023;42.680;23.132;2022-12-18T14:16:04;18.23;;;17.37;;
12194;SDS011;27023;42.680;23.132;2022-12-18T14:18:36;16.20;;;15.30;;
12194;SDS011;27023;42.680;23.132;2022-12-18T14:21:13;16.50;;;15.70;;
12194;SDS011;27023;42.680;23.132;2022-12-18T14:23:44;19.43;;;18.27;;
12194;SDS011;27023;42.680;23.132;2022-12-18T14:26:21;18.10;;;17.30;;
12194;SDS011;27023;42.680;23.132;2022-12-18T14:28:51;16.73;;;15.90;;
12194;SDS011;27023;42.680;23.132;2022-12-18T14:31:19;14.47;;;13.67;;
12194;SDS011;27023;42.680;23.132;2022-12-18T14:33:46;17.67;;;16.87;;
12194;SDS011;27023;42.680;23.132;2022-12-18T14:36:15;14.37;;;13.67;;
12194;SDS011;27023;42.680;23.132;2022-12-18T14:38:43;18.80;;;17.77;;
12194;SDS011;27023;42.680;23.132;2022-12-18T14:41:16;14.90;;;14.33;;
12194;SDS011;27023;42.680;23.132;2022-12-18T14:43:44;14.47;;;13.83;;
12194;SDS011;27023;42.680;23.132;2022-12-18T14:46:27;15.53;;;14.93;;
12194;SDS011;27023;42.680;23.132;2022-12-18T14:48:56;13.57;;;12.90;;
12194;SDS011;27023;42.680;23.132;2022-12-18T14:51:23;17.77;;;16.83;;
12194;SDS011;27023;42.680;23.132;2022-12-18T14:53:53;14.73;;;13.93;;
12194;SDS011;27023;42.680;23.132;2022-12-18T14:56:22;14.77;;;14.00;;
12194;SDS011;27023;42.680;23.132;2022-12-18T14:58:51;12.47;;;12.00;;